createdAt,value
2023-04-28T00:01:41.858Z,96598.84
2023-04-28T00:04:09.152Z,96594.91
2023-04-28T00:06:37.043Z,96596.78
2023-04-28T00:09:03.910Z,96597.41
2023-04-28T00:11:30.840Z,96606.38
2023-04-28T00:13:57.680Z,96598.28
2023-04-28T00:16:24.592Z,96600.97
2023-04-28T00:18:51.876Z,96594.09
2023-04-28T00:21:18.674Z,96593.25
2023-04-28T00:23:45.478Z,96595.75
2023-04-28T00:26:12.608Z,96584.13
2023-04-28T00:28:41.481Z,96588.50
2023-04-28T00:31:13.677Z,96577.91
2023-04-28T00:33:41.307Z,96582.94
2023-04-28T00:36:08.799Z,96580.88
2023-04-28T00:38:37.375Z,96578.19
2023-04-28T00:41:04.569Z,96575.50
2023-04-28T00:43:31.517Z,96571.75
2023-04-28T00:45:58.659Z,96561.84
2023-04-28T00:48:25.537Z,96558.13
2023-04-28T00:50:52.414Z,96559.97
2023-04-28T00:53:19.697Z,96562.28
2023-04-28T00:55:48.097Z,96564.97
2023-04-28T00:58:15.032Z,96568.34
2023-04-28T01:00:42.036Z,96561.91
2023-04-28T01:03:09.307Z,96559.06
2023-04-28T01:05:37.206Z,96553.47
2023-04-28T01:08:04.639Z,96544.19
2023-04-28T01:10:31.691Z,96543.97
2023-04-28T01:13:04.680Z,96544.19
2023-04-28T01:15:31.734Z,96542.31
2023-04-28T01:17:58.664Z,96532.53
2023-04-28T01:20:25.507Z,96530.69
2023-04-28T01:22:52.791Z,96530.69
2023-04-28T01:25:20.096Z,96526.78
2023-04-28T01:27:47.749Z,96526.78
2023-04-28T01:30:14.694Z,96523.03
2023-04-28T01:32:41.539Z,96526.41
2023-04-28T01:35:08.834Z,96524.34
2023-04-28T01:37:36.488Z,96518.78
2023-04-28T01:40:04.006Z,96521.28
2023-04-28T01:42:31.445Z,96511.31
2023-04-28T01:45:03.261Z,96507.63
2023-04-28T01:47:30.130Z,96506.75
2023-04-28T01:49:57.183Z,96512.16
2023-04-28T01:52:24.301Z,96511.16
2023-04-28T01:54:52.330Z,96504.94
2023-04-28T01:57:20.604Z,96504.72
2023-04-28T01:59:49.333Z,96489.38
2023-04-28T02:02:16.909Z,96492.91
2023-04-28T02:04:43.813Z,96488.34
2023-04-28T02:07:10.708Z,96488.53
2023-04-28T02:09:37.682Z,96486.88
2023-04-28T02:12:04.641Z,96501.19
2023-04-28T02:14:34.500Z,96493.09
2023-04-28T02:17:03.180Z,96499.31
2023-04-28T02:19:30.017Z,96500.78
2023-04-28T02:21:56.843Z,96487.13
2023-04-28T02:24:23.756Z,96497.34
2023-04-28T02:26:50.612Z,96490.75
2023-04-28T02:29:18.107Z,96493.06
2023-04-28T02:31:46.182Z,96489.97
2023-04-28T02:34:14.515Z,96497.72
2023-04-28T02:36:41.548Z,96489.25
2023-04-28T02:39:08.731Z,96503.00
2023-04-28T02:41:36.008Z,96506.97
2023-04-28T02:44:02.800Z,96510.13
2023-04-28T02:46:29.630Z,96519.69
2023-04-28T02:48:57.460Z,96515.13
2023-04-28T02:51:24.252Z,96499.63
2023-04-28T02:53:51.106Z,96499.44
2023-04-28T02:56:18.120Z,96508.19
2023-04-28T02:58:44.944Z,96499.88
2023-04-28T03:01:11.994Z,96512.19
2023-04-28T03:03:38.893Z,96512.19
2023-04-28T03:06:06.330Z,96497.44
2023-04-28T03:08:33.194Z,96490.19
2023-04-28T03:11:00.468Z,96492.88
2023-04-28T03:13:29.858Z,96485.63
2023-04-28T03:15:56.735Z,96480.25
2023-04-28T03:18:23.704Z,96488.13
2023-04-28T03:20:50.640Z,96473.81
2023-04-28T03:23:17.446Z,96478.16
2023-04-28T03:25:44.289Z,96472.78
2023-04-28T03:28:12.002Z,96473.44
2023-04-28T03:30:39.734Z,96480.50
2023-04-28T03:33:07.334Z,96477.41
2023-04-28T03:35:34.177Z,96474.50
2023-04-28T03:38:01.079Z,96465.19
2023-04-28T03:40:27.997Z,96461.47
2023-04-28T03:43:14.801Z,96460.22
2023-04-28T03:45:58.642Z,96456.50
2023-04-28T03:48:25.735Z,96450.25
2023-04-28T03:50:52.582Z,96453.81
2023-04-28T03:53:19.603Z,96453.81
2023-04-28T03:55:46.671Z,96441.16
2023-04-28T03:58:13.503Z,96435.75
2023-04-28T04:00:40.291Z,96451.75
2023-04-28T04:03:07.239Z,96447.16
2023-04-28T04:05:34.085Z,96435.16
2023-04-28T04:08:02.139Z,96447.63
2023-04-28T04:10:29.590Z,96437.47
2023-04-28T04:12:56.489Z,96433.75
2023-04-28T04:15:23.361Z,96433.34
2023-04-28T04:17:50.714Z,96437.72
2023-04-28T04:20:17.718Z,96429.41
2023-04-28T04:22:46.039Z,96433.78
2023-04-28T04:25:13.904Z,96432.75
2023-04-28T04:27:43.073Z,96426.13
2023-04-28T04:30:10.173Z,96434.88
2023-04-28T04:32:37.570Z,96424.06
2023-04-28T04:35:04.910Z,96424.91
2023-04-28T04:37:31.795Z,96421.81
2023-04-28T04:40:01.773Z,96414.88
2023-04-28T04:42:33.225Z,96412.69
2023-04-28T04:45:06.200Z,96421.59
2023-04-28T04:47:33.150Z,96421.59
2023-04-28T04:50:00.273Z,96428.50
2023-04-28T04:52:27.156Z,96426.63
2023-04-28T04:54:56.307Z,96425.59
2023-04-28T04:57:24.316Z,96430.16
2023-04-28T05:00:18.505Z,96423.09
2023-04-28T05:02:46.484Z,96420.56
2023-04-28T05:05:21.315Z,96424.53
2023-04-28T05:07:56.195Z,96422.66
2023-04-28T05:10:24.111Z,96430.94
2023-04-28T05:12:51.791Z,96430.09
2023-04-28T05:15:18.884Z,96432.78
2023-04-28T05:18:09.756Z,96435.31
2023-04-28T05:20:37.670Z,96434.50
2023-04-28T05:23:05.892Z,96435.31
2023-04-28T05:25:33.041Z,96434.50
2023-04-28T05:28:04.698Z,96427.22
2023-04-28T05:30:31.774Z,96423.47
2023-04-28T05:32:58.811Z,96427.00
2023-04-28T05:35:26.347Z,96426.81
2023-04-28T05:37:53.647Z,96421.41
2023-04-28T05:40:22.108Z,96425.78
2023-04-28T05:42:49.490Z,96427.47
2023-04-28T05:45:16.402Z,96427.47
2023-04-28T05:47:43.567Z,96420.81
2023-04-28T05:50:13.601Z,96421.84
2023-04-28T05:52:40.566Z,96415.63
2023-04-28T05:55:08.131Z,96423.28
2023-04-28T05:57:45.685Z,96418.28
2023-04-28T06:00:19.458Z,96419.13
2023-04-28T06:02:46.480Z,96416.81
2023-04-28T06:05:13.640Z,96409.72
2023-04-28T06:07:40.944Z,96418.66
2023-04-28T06:10:09.419Z,96428.00
2023-04-28T06:12:37.348Z,96424.47
2023-04-28T06:15:06.366Z,96418.22
2023-04-28T06:17:34.349Z,96416.34
2023-04-28T06:20:01.406Z,96413.88
2023-04-28T06:22:28.327Z,96421.41
2023-04-28T06:24:55.145Z,96420.81
2023-04-28T06:27:32.688Z,96401.50
2023-04-28T06:29:59.705Z,96411.94
2023-04-28T06:32:26.582Z,96411.53
2023-04-28T06:34:53.489Z,96404.88
2023-04-28T06:37:20.321Z,96408.25
2023-04-28T06:39:48.166Z,96403.66
2023-04-28T06:42:18.387Z,96396.19
2023-04-28T06:44:52.466Z,96402.25
2023-04-28T06:47:20.085Z,96399.16
2023-04-28T06:49:49.909Z,96393.16
2023-04-28T06:52:16.860Z,96397.50
2023-04-28T06:54:43.700Z,96397.31
2023-04-28T06:57:10.595Z,96398.16
2023-04-28T06:59:38.216Z,96390.47
2023-04-28T07:02:05.083Z,96383.00
2023-04-28T07:04:32.092Z,96388.63
2023-04-28T07:06:58.911Z,96385.56
2023-04-28T07:09:25.814Z,96386.19
2023-04-28T07:11:52.607Z,96387.47
2023-04-28T07:14:19.489Z,96384.34
2023-04-28T07:16:46.587Z,96385.00
2023-04-28T07:19:13.613Z,96377.72
2023-04-28T07:21:40.361Z,96388.53
2023-04-28T07:24:07.472Z,96383.13
2023-04-28T07:26:34.393Z,96377.06
2023-04-28T07:29:01.983Z,96383.53
2023-04-28T07:31:29.184Z,96384.75
2023-04-28T07:33:56.747Z,96376.84
2023-04-28T07:36:23.845Z,96385.19
2023-04-28T07:38:50.978Z,96381.63
2023-04-28T07:41:18.691Z,96391.81
2023-04-28T07:43:45.570Z,96396.75
2023-04-28T07:46:13.225Z,96394.25
2023-04-28T07:48:40.436Z,96392.78
2023-04-28T07:51:07.338Z,96395.69
2023-04-28T07:53:34.654Z,96391.91
2023-04-28T07:56:01.960Z,96398.56
2023-04-28T07:58:28.789Z,96397.91
2023-04-28T08:00:55.655Z,96402.69
2023-04-28T08:03:22.650Z,96412.66
2023-04-28T08:05:49.860Z,96409.75
2023-04-28T08:08:16.824Z,96407.44
2023-04-28T08:10:43.780Z,96418.47
2023-04-28T08:13:10.706Z,96416.59
2023-04-28T08:15:37.573Z,96419.06
2023-04-28T08:18:04.562Z,96416.00
2023-04-28T08:20:32.450Z,96422.47
2023-04-28T08:22:59.320Z,96426.25
2023-04-28T08:25:26.253Z,96436.47
2023-04-28T08:27:53.729Z,96435.91
2023-04-28T08:30:21.828Z,96439.88
2023-04-28T08:32:48.704Z,96448.41
2023-04-28T08:35:15.696Z,96445.13
2023-04-28T08:37:42.898Z,96440.97
2023-04-28T08:40:10.366Z,96439.75
2023-04-28T08:42:38.233Z,96446.44
2023-04-28T08:45:05.986Z,96448.72
2023-04-28T08:47:39.428Z,96450.59
2023-04-28T08:50:08.810Z,96457.91
2023-04-28T08:52:36.560Z,96454.59
2023-04-28T08:55:09.514Z,96458.56
2023-04-28T08:57:44.202Z,96465.03
2023-04-28T09:00:12.104Z,96471.53
2023-04-28T09:02:42.068Z,96470.28
2023-04-28T09:05:14.246Z,96466.53
2023-04-28T09:07:41.416Z,96472.19
2023-04-28T09:10:23.105Z,96471.16
2023-04-28T09:12:56.665Z,96477.44
2023-04-28T09:15:35.255Z,96474.50
2023-04-28T09:18:04.077Z,96468.53
2023-04-28T09:20:33.366Z,96472.69
2023-04-28T09:23:21.252Z,96468.38
2023-04-28T09:26:02.099Z,96467.78
2023-04-28T09:28:29.113Z,96468.22
2023-04-28T09:30:56.035Z,96466.78
2023-04-28T09:33:23.283Z,96465.94
2023-04-28T09:35:50.414Z,96459.69
2023-04-28T09:38:20.093Z,96463.63
2023-04-28T09:41:01.952Z,96461.16
2023-04-28T09:43:34.624Z,96459.69
2023-04-28T09:46:04.790Z,96470.09
2023-04-28T09:48:37.997Z,96463.84
2023-04-28T09:51:07.646Z,96463.00
2023-04-28T09:53:35.636Z,96462.97
2023-04-28T09:56:05.255Z,96469.44
2023-04-28T09:58:35.067Z,96464.00
2023-04-28T10:01:02.182Z,96470.66
2023-04-28T10:03:31.086Z,96466.47
2023-04-28T10:05:59.226Z,96471.25
2023-04-28T10:08:27.793Z,96475.84
2023-04-28T10:10:56.639Z,96478.94
2023-04-28T10:13:24.749Z,96468.72
2023-04-28T10:15:55.227Z,96473.72
2023-04-28T10:18:24.106Z,96472.03
2023-04-28T10:20:58.176Z,96479.56
2023-04-28T10:24:08.164Z,96473.75
2023-04-28T10:27:09.152Z,96475.00
2023-04-28T10:29:36.621Z,96472.03
2023-04-28T10:32:19.122Z,96472.50
2023-04-28T10:34:45.974Z,96468.06
2023-04-28T10:37:15.024Z,96470.56
2023-04-28T10:40:21.124Z,96482.28
2023-04-28T10:42:56.512Z,96474.75
2023-04-28T10:45:56.404Z,96482.28
2023-04-28T10:48:46.841Z,96470.38
2023-04-28T10:51:16.434Z,96474.75
2023-04-28T10:53:46.809Z,96471.16
2023-04-28T10:56:21.606Z,96472.41
2023-04-28T10:58:50.830Z,96478.66
2023-04-28T11:01:26.184Z,96471.75
2023-04-28T11:03:59.911Z,96481.53
2023-04-28T11:06:46.958Z,96474.44
2023-04-28T11:09:19.343Z,96470.00
2023-04-28T11:12:00.788Z,96474.13
2023-04-28T11:14:36.484Z,96479.53
2023-04-28T11:17:13.146Z,96464.25
2023-04-28T11:19:45.000Z,96463.81
2023-04-28T11:22:21.711Z,96474.91
2023-04-28T11:25:03.173Z,96473.84
2023-04-28T11:27:34.518Z,96466.09
2023-04-28T11:30:01.935Z,96486.34
2023-04-28T11:32:34.392Z,96473.44
2023-04-28T11:35:01.821Z,96476.75
2023-04-28T11:37:28.641Z,96471.06
2023-04-28T11:39:55.630Z,96466.50
2023-04-28T11:42:22.445Z,96485.06
2023-04-28T11:44:53.858Z,96462.72
2023-04-28T11:47:33.763Z,96473.59
2023-04-28T11:50:01.840Z,96463.16
2023-04-28T11:52:28.952Z,96466.41
2023-04-28T11:54:58.011Z,96462.78
2023-04-28T11:57:25.384Z,96451.47
2023-04-28T11:59:52.377Z,96448.25
2023-04-28T12:02:30.254Z,96447.81
2023-04-28T12:05:05.861Z,96449.19
2023-04-28T12:07:44.226Z,96448.91
2023-04-28T12:10:16.733Z,96447.31
2023-04-28T12:12:51.003Z,96442.81
2023-04-28T12:15:21.883Z,96449.25
2023-04-28T12:17:50.588Z,96454.84
2023-04-28T12:20:38.015Z,96449.63
2023-04-28T12:23:06.118Z,96451.81
2023-04-28T12:25:34.893Z,96455.75
2023-04-28T12:28:11.145Z,96467.91
2023-04-28T12:30:44.596Z,96460.97
2023-04-28T12:33:25.550Z,96457.28
2023-04-28T12:35:55.101Z,96448.66
2023-04-28T12:38:22.870Z,96451.16
2023-04-28T12:40:49.708Z,96454.25
2023-04-28T12:43:16.543Z,96459.50
2023-04-28T12:45:43.589Z,96453.84
2023-04-28T12:48:10.809Z,96445.44
2023-04-28T12:50:38.076Z,96444.97
2023-04-28T12:53:05.157Z,96439.06
2023-04-28T12:55:32.117Z,96429.16
2023-04-28T12:57:59.450Z,96410.63
2023-04-28T13:00:26.403Z,96400.00
2023-04-28T13:02:53.425Z,96409.88
2023-04-28T13:05:20.374Z,96423.56
2023-04-28T13:07:47.626Z,96419.69
2023-04-28T13:10:15.511Z,96443.28
2023-04-28T13:12:42.510Z,96435.94
2023-04-28T13:15:10.229Z,96436.78
2023-04-28T13:17:37.020Z,96426.69
2023-04-28T13:20:05.178Z,96430.00
2023-04-28T13:22:32.271Z,96426.47
2023-04-28T13:24:59.132Z,96418.28
2023-04-28T13:27:25.962Z,96425.63
2023-04-28T13:29:52.754Z,96434.03
2023-04-28T13:32:19.906Z,96437.22
2023-04-28T13:34:47.053Z,96422.41
2023-04-28T13:37:14.183Z,96418.47
2023-04-28T13:39:41.061Z,96422.72
2023-04-28T13:42:08.238Z,96429.13
2023-04-28T13:44:35.282Z,96418.91
2023-04-28T13:47:02.408Z,96416.84
2023-04-28T13:49:29.222Z,96427.41
2023-04-28T13:51:56.355Z,96412.59
2023-04-28T13:54:23.144Z,96401.31
2023-04-28T13:56:50.316Z,96422.47
2023-04-28T13:59:17.286Z,96424.38
2023-04-28T14:01:44.266Z,96430.50
2023-04-28T14:04:11.504Z,96431.66
2023-04-28T14:06:38.639Z,96419.66
2023-04-28T14:09:06.314Z,96424.75
2023-04-28T14:11:33.134Z,96419.03
2023-04-28T14:13:59.900Z,96419.53
2023-04-28T14:16:27.446Z,96417.09
2023-04-28T14:18:54.369Z,96419.28
2023-04-28T14:21:21.216Z,96407.19
2023-04-28T14:23:48.036Z,96425.41
2023-04-28T14:26:14.827Z,96414.53
2023-04-28T14:28:42.198Z,96413.44
2023-04-28T14:31:09.393Z,96399.03
2023-04-28T14:33:36.724Z,96401.75
2023-04-28T14:36:03.995Z,96396.31
2023-04-28T14:38:31.116Z,96399.66
2023-04-28T14:40:58.114Z,96395.41
2023-04-28T14:43:25.585Z,96401.44
2023-04-28T14:45:53.031Z,96397.47
2023-04-28T14:48:20.294Z,96389.88
2023-04-28T14:50:47.468Z,96391.97
2023-04-28T14:53:14.306Z,96388.06
2023-04-28T14:55:41.125Z,96393.84
2023-04-28T14:58:07.905Z,96383.47
2023-04-28T15:00:35.430Z,96387.19
2023-04-28T15:03:02.352Z,96392.56
2023-04-28T15:05:29.358Z,96392.94
2023-04-28T15:07:56.244Z,96391.88
2023-04-28T15:10:23.084Z,96389.16
2023-04-28T15:12:49.959Z,96387.50
2023-04-28T15:15:16.856Z,96390.22
2023-04-28T15:17:45.104Z,96382.88
2023-04-28T15:20:12.131Z,96381.22
2023-04-28T15:22:38.968Z,96376.22
2023-04-28T15:25:06.806Z,96376.69
2023-04-28T15:27:33.591Z,96374.88
2023-04-28T15:30:01.182Z,96371.75
2023-04-28T15:32:30.346Z,96376.59
2023-04-28T15:34:57.537Z,96374.34
2023-04-28T15:37:45.201Z,96374.25
2023-04-28T15:40:14.963Z,96374.25
2023-04-28T15:42:43.411Z,96366.53
2023-04-28T15:45:11.069Z,96377.88
2023-04-28T15:47:38.981Z,96368.50
2023-04-28T15:50:08.852Z,96369.19
2023-04-28T15:52:45.939Z,96372.22
2023-04-28T15:55:14.567Z,96381.66
2023-04-28T15:57:42.593Z,96376.69
2023-04-28T16:00:11.323Z,96389.25
2023-04-28T16:02:39.232Z,96383.69
2023-04-28T16:05:07.215Z,96382.69
2023-04-28T16:07:41.118Z,96388.38
2023-04-28T16:10:14.825Z,96373.56
2023-04-28T16:12:42.567Z,96374.97
2023-04-28T16:15:12.424Z,96370.84
2023-04-28T16:17:40.262Z,96369.78
2023-04-28T16:20:09.789Z,96377.31
2023-04-28T16:22:38.687Z,96385.47
2023-04-28T16:25:06.592Z,96374.00
2023-04-28T16:27:33.837Z,96372.34
2023-04-28T16:30:00.852Z,96380.72
2023-04-28T16:32:28.077Z,96386.56
2023-04-28T16:34:58.195Z,96385.16
2023-04-28T16:37:25.761Z,96391.19
2023-04-28T16:39:52.778Z,96394.97
2023-04-28T16:42:22.699Z,96386.41
2023-04-28T16:44:51.811Z,96381.88
2023-04-28T16:47:19.971Z,96381.47
2023-04-28T16:49:46.792Z,96374.00
2023-04-28T16:52:13.626Z,96377.97
2023-04-28T16:54:40.456Z,96385.06
2023-04-28T16:57:07.644Z,96374.81
2023-04-28T16:59:34.456Z,96371.88
2023-04-28T17:02:03.780Z,96372.03
2023-04-28T17:04:31.356Z,96374.19
2023-04-28T17:06:58.789Z,96351.13
2023-04-28T17:09:28.246Z,96361.56
2023-04-28T17:11:55.573Z,96351.66
2023-04-28T17:14:22.513Z,96353.22
2023-04-28T17:16:49.406Z,96352.84
2023-04-28T17:19:16.686Z,96361.72
2023-04-28T17:21:43.638Z,96368.97
2023-04-28T17:24:10.480Z,96364.59
2023-04-28T17:26:37.308Z,96364.81
2023-04-28T17:29:04.784Z,96372.25
2023-04-28T17:31:31.634Z,96363.13
2023-04-28T17:33:59.736Z,96371.59
2023-04-28T17:36:27.148Z,96366.03
2023-04-28T17:38:54.790Z,96368.84
2023-04-28T17:41:22.470Z,96362.69
2023-04-28T17:43:51.776Z,96368.22
2023-04-28T17:46:18.963Z,96371.88
2023-04-28T17:48:45.877Z,96362.44
2023-04-28T17:51:12.696Z,96367.50
2023-04-28T17:53:39.566Z,96368.19
2023-04-28T17:56:06.660Z,96362.50
2023-04-28T17:58:33.682Z,96370.03
2023-04-28T18:01:05.219Z,96364.59
2023-04-28T18:03:37.920Z,96360.13
2023-04-28T18:06:07.574Z,96363.59
2023-04-28T18:08:36.356Z,96372.50
2023-04-28T18:11:03.590Z,96380.38
2023-04-28T18:13:30.461Z,96374.59
2023-04-28T18:15:57.327Z,96381.63
2023-04-28T18:18:24.179Z,96391.91
2023-04-28T18:20:58.026Z,96398.50
2023-04-28T18:23:26.434Z,96404.00
2023-04-28T18:25:53.300Z,96405.09
2023-04-28T18:28:20.119Z,96393.88
2023-04-28T18:30:46.972Z,96404.16
2023-04-28T18:33:13.967Z,96403.38
2023-04-28T18:35:40.979Z,96405.31
2023-04-28T18:38:07.828Z,96404.50
2023-04-28T18:40:40.706Z,96399.09
2023-04-28T18:43:10.329Z,96417.91
2023-04-28T18:45:40.745Z,96423.16
2023-04-28T18:48:08.502Z,96428.19
2023-04-28T18:50:36.218Z,96423.41
2023-04-28T18:53:04.925Z,96422.41
2023-04-28T18:55:34.818Z,96427.00
2023-04-28T18:58:02.091Z,96429.31
2023-04-28T19:00:29.208Z,96431.63
2023-04-28T19:02:56.255Z,96437.47
2023-04-28T19:05:23.265Z,96439.16
2023-04-28T19:07:50.293Z,96438.75
2023-04-28T19:10:17.171Z,96437.50
2023-04-28T19:12:44.041Z,96441.69
2023-04-28T19:15:10.886Z,96445.28
2023-04-28T19:17:37.735Z,96448.41
2023-04-28T19:20:05.251Z,96447.38
2023-04-28T19:22:37.848Z,96458.22
2023-04-28T19:25:09.669Z,96458.44
2023-04-28T19:27:39.452Z,96458.88
2023-04-28T19:30:12.292Z,96461.97
2023-04-28T19:32:41.589Z,96463.22
2023-04-28T19:35:09.405Z,96455.50
2023-04-28T19:37:36.358Z,96458.63
2023-04-28T19:40:07.302Z,96457.19
2023-04-28T19:42:35.112Z,96460.31
2023-04-28T19:45:02.509Z,96458.84
2023-04-28T19:47:34.170Z,96467.19
2023-04-28T19:50:01.629Z,96472.81
2023-04-28T19:52:28.543Z,96465.72
2023-04-28T19:54:55.509Z,96462.41
2023-04-28T19:57:22.416Z,96462.59
2023-04-28T19:59:49.863Z,96469.91
2023-04-28T20:02:17.301Z,96469.06
2023-04-28T20:04:44.369Z,96469.91
2023-04-28T20:07:11.907Z,96471.56
2023-04-28T20:09:39.120Z,96476.16
2023-04-28T20:12:08.583Z,96476.97
2023-04-28T20:14:37.027Z,96468.66
2023-04-28T20:17:04.843Z,96471.97
2023-04-28T20:19:31.817Z,96473.66
2023-04-28T20:21:58.665Z,96472.19
2023-04-28T20:24:25.841Z,96469.50
2023-04-28T20:26:54.381Z,96472.19
2023-04-28T20:29:21.493Z,96465.94
2023-04-28T20:31:48.564Z,96461.34
2023-04-28T20:34:15.557Z,96460.53
2023-04-28T20:36:43.176Z,96469.72
2023-04-28T20:39:11.546Z,96465.94
2023-04-28T20:41:40.850Z,96474.91
2023-04-28T20:44:08.052Z,96464.06
2023-04-28T20:46:35.385Z,96472.19
2023-04-28T20:49:04.489Z,96470.53
2023-04-28T20:51:35.136Z,96476.97
2023-04-28T20:54:03.859Z,96465.53
2023-04-28T20:56:30.632Z,96473.66
2023-04-28T20:58:57.406Z,96462.00
2023-04-28T21:01:24.406Z,96472.00
2023-04-28T21:03:51.483Z,96479.28
2023-04-28T21:06:18.354Z,96482.19
2023-04-28T21:08:45.198Z,96481.38
2023-04-28T21:11:16.961Z,96486.19
2023-04-28T21:13:44.962Z,96486.78
2023-04-28T21:16:21.448Z,96475.34
2023-04-28T21:18:49.824Z,96486.56
2023-04-28T21:21:16.835Z,96482.19
2023-04-28T21:23:44.155Z,96488.44
2023-04-28T21:26:11.110Z,96487.63
2023-04-28T21:28:39.762Z,96480.53
2023-04-28T21:31:06.689Z,96484.91
2023-04-28T21:33:34.058Z,96490.31
2023-04-28T21:36:07.774Z,96494.31
2023-04-28T21:38:35.329Z,96492.22
2023-04-28T21:41:02.479Z,96495.75
2023-04-28T21:43:29.360Z,96493.03
2023-04-28T21:45:56.194Z,96493.03
2023-04-28T21:48:23.041Z,96495.75
2023-04-28T21:50:49.948Z,96494.09
2023-04-28T21:53:16.934Z,96490.53
2023-04-28T21:55:44.747Z,96491.78
2023-04-28T21:58:12.219Z,96495.53
2023-04-28T22:00:43.441Z,96488.88
2023-04-28T22:03:11.186Z,96491.34
2023-04-28T22:05:40.177Z,96494.50
2023-04-28T22:08:07.240Z,96494.69
2023-04-28T22:10:34.824Z,96495.75
2023-04-28T22:13:01.713Z,96494.28
2023-04-28T22:15:28.839Z,96494.50
2023-04-28T22:17:55.832Z,96494.69
2023-04-28T22:20:22.695Z,96487.81
2023-04-28T22:22:49.866Z,96491.56
2023-04-28T22:25:17.119Z,96492.81
2023-04-28T22:27:44.029Z,96486.78
2023-04-28T22:30:11.679Z,96485.94
2023-04-28T22:32:38.643Z,96496.13
2023-04-28T22:35:06.117Z,96497.38
2023-04-28T22:37:33.965Z,96495.91
2023-04-28T22:40:01.005Z,96496.09
2023-04-28T22:42:28.525Z,96494.44
2023-04-28T22:44:55.455Z,96497.16
2023-04-28T22:47:24.509Z,96494.66
2023-04-28T22:49:51.659Z,96493.84
2023-04-28T22:52:20.378Z,96497.59
2023-04-28T22:54:47.450Z,96491.75
2023-04-28T22:57:14.218Z,96492.97
2023-04-28T22:59:41.855Z,96487.78
2023-04-28T23:02:09.839Z,96501.72
2023-04-28T23:04:36.921Z,96495.03
2023-04-28T23:07:03.792Z,96495.25
2023-04-28T23:09:31.436Z,96494.00
2023-04-28T23:11:58.235Z,96499.56
2023-04-28T23:14:25.058Z,96494.38
2023-04-28T23:16:55.231Z,96485.59
2023-04-28T23:19:22.507Z,96496.63
2023-04-28T23:21:49.655Z,96489.56
2023-04-28T23:24:16.538Z,96499.56
2023-04-28T23:26:43.325Z,96503.28
2023-04-28T23:29:10.424Z,96491.63
2023-04-28T23:31:40.193Z,96498.69
2023-04-28T23:34:07.074Z,96504.31
2023-04-28T23:36:33.983Z,96504.31
2023-04-28T23:39:02.105Z,96498.91
2023-04-28T23:41:29.143Z,96499.31
2023-04-28T23:43:56.602Z,96495.97
2023-04-28T23:46:23.858Z,96495.34
2023-04-28T23:48:50.797Z,96501.78
2023-04-28T23:51:17.602Z,96494.94
2023-04-28T23:53:44.578Z,96487.22
2023-04-28T23:56:11.635Z,96489.09
2023-04-28T23:58:38.810Z,96487.59
